createdAt,value
2023-02-12T00:01:15.254Z,14.73
2023-02-12T00:03:42.187Z,15.55
2023-02-12T00:06:09.944Z,14.48
2023-02-12T00:08:37.874Z,14.82
2023-02-12T00:11:27.995Z,17.02
2023-02-12T00:13:55.692Z,16.25
2023-02-12T00:16:28.554Z,15.27
2023-02-12T00:18:56.903Z,16.52
2023-02-12T00:21:24.177Z,13.90
2023-02-12T00:23:50.736Z,15.02
2023-02-12T00:26:23.227Z,15.50
2023-02-12T00:28:50.876Z,16.65
2023-02-12T00:31:21.183Z,21.75
2023-02-12T00:33:48.039Z,18.50
2023-02-12T00:36:17.899Z,17.15
2023-02-12T00:38:45.572Z,14.50
2023-02-12T00:41:13.039Z,15.40
2023-02-12T00:43:39.674Z,16.83
2023-02-12T00:46:07.108Z,15.30
2023-02-12T00:48:34.877Z,15.90
2023-02-12T00:51:01.711Z,17.20
2023-02-12T00:53:28.613Z,15.65
2023-02-12T00:55:55.505Z,14.88
2023-02-12T00:58:22.914Z,15.40
2023-02-12T01:00:50.885Z,18.02
2023-02-12T01:03:17.974Z,17.30
2023-02-12T01:05:44.556Z,16.73
2023-02-12T01:08:15.584Z,18.50
2023-02-12T01:10:43.355Z,16.73
2023-02-12T01:13:14.667Z,15.77
2023-02-12T01:15:42.284Z,13.73
2023-02-12T01:18:09.155Z,16.20
2023-02-12T01:20:35.853Z,17.20
2023-02-12T01:23:02.416Z,17.23
2023-02-12T01:25:29.102Z,16.58
2023-02-12T01:27:55.895Z,17.75
2023-02-12T01:30:24.199Z,15.85
2023-02-12T01:32:50.846Z,20.35
2023-02-12T01:35:17.478Z,18.08
2023-02-12T01:37:44.061Z,14.93
2023-02-12T01:40:14.821Z,17.25
2023-02-12T01:42:41.467Z,16.98
2023-02-12T01:45:13.911Z,17.35
2023-02-12T01:47:45.458Z,17.05
2023-02-12T01:50:17.238Z,17.40
2023-02-12T01:52:48.017Z,17.35
2023-02-12T01:55:15.198Z,20.10
2023-02-12T01:57:44.710Z,17.25
2023-02-12T02:00:16.689Z,16.50
2023-02-12T02:02:46.043Z,20.27
2023-02-12T02:05:15.601Z,17.10
2023-02-12T02:07:44.155Z,16.50
2023-02-12T02:10:11.126Z,17.27
2023-02-12T02:12:57.293Z,16.15
2023-02-12T02:15:26.578Z,17.05
2023-02-12T02:18:25.479Z,16.67
2023-02-12T02:21:06.957Z,20.20
2023-02-12T02:23:55.388Z,17.42
2023-02-12T02:26:41.368Z,19.23
2023-02-12T02:29:19.967Z,25.55
2023-02-12T02:31:57.928Z,15.88
2023-02-12T02:34:34.280Z,18.55
2023-02-12T02:37:03.624Z,14.75
2023-02-12T02:39:47.783Z,15.80
2023-02-12T02:45:12.554Z,14.68
2023-02-12T02:47:44.160Z,19.42
2023-02-12T02:50:17.620Z,19.25
2023-02-12T02:53:02.900Z,19.95
2023-02-12T02:55:54.270Z,17.90
2023-02-12T02:58:26.856Z,17.67
2023-02-12T03:00:56.786Z,19.95
2023-02-12T03:03:46.160Z,19.23
2023-02-12T03:06:26.289Z,15.48
2023-02-12T03:09:05.678Z,17.58
2023-02-12T03:11:34.538Z,16.35
2023-02-12T03:14:04.557Z,18.73
2023-02-12T03:16:35.057Z,17.45
2023-02-12T03:19:42.380Z,17.80
2023-02-12T03:22:32.742Z,19.13
2023-02-12T03:25:09.688Z,14.57
2023-02-12T03:27:45.610Z,17.98
2023-02-12T03:30:13.963Z,16.73
2023-02-12T03:33:23.723Z,17.58
2023-02-12T03:36:06.987Z,17.40
2023-02-12T03:38:45.456Z,15.97
2023-02-12T03:41:18.130Z,19.08
2023-02-12T03:44:04.587Z,18.10
2023-02-12T03:46:55.877Z,16.25
2023-02-12T03:49:33.791Z,18.05
2023-02-12T03:52:00.812Z,19.15
2023-02-12T03:54:27.597Z,20.00
2023-02-12T03:56:58.910Z,20.40
2023-02-12T03:59:26.520Z,16.83
2023-02-12T04:01:55.803Z,17.10
2023-02-12T04:04:24.780Z,17.05
2023-02-12T04:06:53.173Z,17.98
2023-02-12T04:09:22.233Z,17.48
2023-02-12T04:12:02.658Z,17.35
2023-02-12T04:14:38.635Z,18.73
2023-02-12T04:17:38.546Z,19.63
2023-02-12T04:20:26.532Z,17.95
2023-02-12T04:22:53.219Z,18.65
2023-02-12T04:25:38.206Z,19.25
2023-02-12T04:28:47.908Z,15.45
2023-02-12T04:31:20.972Z,17.80
2023-02-12T04:33:56.858Z,16.17
2023-02-12T04:36:26.776Z,15.57
2023-02-12T04:38:59.460Z,16.65
2023-02-12T04:41:26.554Z,18.65
2023-02-12T04:43:53.363Z,18.33
2023-02-12T04:46:20.085Z,20.92
2023-02-12T04:48:58.735Z,20.65
2023-02-12T04:51:25.518Z,18.25
2023-02-12T04:53:52.190Z,20.85
2023-02-12T04:56:18.874Z,17.23
2023-02-12T04:58:45.619Z,17.83
2023-02-12T05:01:12.579Z,19.33
2023-02-12T05:03:39.457Z,18.52
2023-02-12T05:06:08.715Z,19.10
2023-02-12T05:08:35.757Z,17.73
2023-02-12T05:11:07.437Z,19.52
2023-02-12T05:13:34.753Z,18.00
2023-02-12T05:16:05.294Z,18.13
2023-02-12T05:18:32.923Z,21.40
2023-02-12T05:21:02.369Z,19.48
2023-02-12T05:23:30.655Z,16.70
2023-02-12T05:26:02.485Z,18.08
2023-02-12T05:28:29.948Z,18.58
2023-02-12T05:31:00.914Z,17.60
2023-02-12T05:33:27.974Z,18.77
2023-02-12T05:35:55.721Z,19.65
2023-02-12T05:38:22.700Z,18.92
2023-02-12T05:40:49.325Z,20.95
2023-02-12T05:43:16.006Z,20.83
2023-02-12T05:45:45.024Z,20.17
2023-02-12T05:48:11.747Z,20.35
2023-02-12T05:50:38.442Z,20.30
2023-02-12T05:53:05.218Z,18.23
2023-02-12T05:55:32.039Z,18.08
2023-02-12T05:57:58.711Z,18.17
2023-02-12T06:00:25.470Z,18.38
2023-02-12T06:02:52.199Z,18.67
2023-02-12T06:05:18.893Z,19.13
2023-02-12T06:07:45.585Z,22.50
2023-02-12T06:10:12.277Z,18.95
2023-02-12T06:12:39.007Z,18.45
2023-02-12T06:15:05.955Z,19.42
2023-02-12T06:17:34.786Z,20.10
2023-02-12T06:20:01.583Z,17.02
2023-02-12T06:22:28.860Z,18.25
2023-02-12T06:24:55.509Z,22.33
2023-02-12T06:27:22.283Z,21.42
2023-02-12T06:29:48.940Z,21.70
2023-02-12T06:32:15.772Z,19.48
2023-02-12T06:34:42.571Z,21.17
2023-02-12T06:37:13.001Z,22.58
2023-02-12T06:39:39.670Z,22.45
2023-02-12T06:42:06.422Z,20.33
2023-02-12T06:44:33.092Z,22.75
2023-02-12T06:47:00.321Z,23.27
2023-02-12T06:49:27.271Z,21.83
2023-02-12T06:51:53.968Z,22.88
2023-02-12T06:54:20.723Z,24.70
2023-02-12T06:56:47.519Z,25.27
2023-02-12T06:59:16.517Z,19.10
2023-02-12T07:01:43.749Z,19.13
2023-02-12T07:04:11.209Z,23.20
2023-02-12T07:06:37.907Z,23.08
2023-02-12T07:09:05.190Z,23.27
2023-02-12T07:11:37.840Z,21.33
2023-02-12T07:14:05.320Z,21.05
2023-02-12T07:16:32.310Z,25.45
2023-02-12T07:18:59.129Z,22.98
2023-02-12T07:21:25.883Z,19.70
2023-02-12T07:23:54.131Z,18.52
2023-02-12T07:26:22.433Z,21.60
2023-02-12T07:28:50.458Z,22.95
2023-02-12T07:31:20.431Z,24.75
2023-02-12T07:33:47.741Z,21.35
2023-02-12T07:36:20.795Z,23.10
2023-02-12T07:38:48.149Z,24.20
2023-02-12T07:41:16.482Z,24.77
2023-02-12T07:43:45.678Z,26.42
2023-02-12T07:46:17.305Z,24.23
2023-02-12T07:48:47.265Z,27.00
2023-02-12T07:51:16.714Z,22.65
2023-02-12T07:53:43.961Z,21.50
2023-02-12T07:56:16.232Z,21.27
2023-02-12T07:58:47.277Z,23.60
2023-02-12T08:01:28.948Z,24.45
2023-02-12T08:04:01.972Z,21.40
2023-02-12T08:06:31.530Z,26.33
2023-02-12T08:09:00.240Z,27.90
2023-02-12T08:11:28.503Z,26.33
2023-02-12T08:13:55.645Z,26.13
2023-02-12T08:16:25.897Z,28.50
2023-02-12T08:18:53.631Z,27.05
2023-02-12T08:21:22.536Z,25.88
2023-02-12T08:23:50.938Z,28.10
2023-02-12T08:26:23.316Z,28.63
2023-02-12T08:28:56.424Z,30.13
2023-02-12T08:31:25.841Z,30.45
2023-02-12T08:33:53.704Z,32.03
2023-02-12T08:36:23.749Z,31.02
2023-02-12T08:38:51.485Z,31.25
2023-02-12T08:41:25.012Z,29.85
2023-02-12T08:44:01.521Z,30.60
2023-02-12T08:46:35.057Z,30.88
2023-02-12T08:49:23.981Z,31.75
2023-02-12T08:51:53.909Z,30.83
2023-02-12T08:54:29.329Z,35.13
2023-02-12T08:56:58.838Z,28.00
2023-02-12T08:59:26.064Z,28.25
2023-02-12T09:01:54.011Z,29.35
2023-02-12T09:04:27.179Z,26.33
2023-02-12T09:06:55.007Z,24.02
2023-02-12T09:09:23.008Z,24.02
2023-02-12T09:11:50.317Z,24.15
2023-02-12T09:14:24.076Z,21.90
2023-02-12T09:16:55.118Z,20.25
2023-02-12T09:19:22.890Z,21.15
2023-02-12T09:21:56.747Z,16.67
2023-02-12T09:24:25.683Z,19.27
2023-02-12T09:26:52.510Z,20.52
2023-02-12T09:29:19.337Z,18.48
2023-02-12T09:31:46.505Z,19.98
2023-02-12T09:34:13.319Z,17.40
2023-02-12T09:36:39.981Z,21.75
2023-02-12T09:39:06.665Z,21.40
2023-02-12T09:42:17.953Z,17.85
2023-02-12T09:45:22.565Z,19.23
2023-02-12T09:48:11.222Z,20.00
2023-02-12T09:50:44.183Z,15.80
2023-02-12T09:53:16.643Z,16.33
2023-02-12T09:55:43.366Z,13.07
2023-02-12T09:58:18.219Z,14.93
2023-02-12T10:00:45.333Z,16.50
2023-02-12T10:03:16.522Z,13.73
2023-02-12T10:05:53.764Z,15.00
2023-02-12T10:09:05.108Z,15.68
2023-02-12T10:11:43.759Z,15.13
2023-02-12T10:14:19.291Z,15.15
2023-02-12T10:17:08.086Z,10.63
2023-02-12T10:20:01.345Z,15.48
2023-02-12T10:22:34.452Z,9.88
2023-02-12T10:25:33.662Z,11.45
2023-02-12T10:28:07.819Z,11.80
2023-02-12T10:30:37.310Z,11.07
2023-02-12T10:33:07.848Z,11.45
2023-02-12T10:35:35.668Z,13.20
2023-02-12T10:38:07.839Z,9.02
2023-02-12T10:40:37.811Z,11.60
2023-02-12T10:43:04.650Z,9.68
2023-02-12T10:45:38.065Z,11.02
2023-02-12T10:48:10.266Z,11.18
2023-02-12T10:50:43.489Z,8.63
2023-02-12T10:53:32.169Z,10.88
2023-02-12T10:56:27.331Z,10.90
2023-02-12T10:58:57.914Z,13.80
2023-02-12T11:01:31.728Z,12.45
2023-02-12T11:06:29.968Z,14.35
2023-02-12T11:08:58.647Z,11.43
2023-02-12T11:11:33.143Z,14.68
2023-02-12T11:14:07.274Z,14.55
2023-02-12T11:16:37.904Z,12.70
2023-02-12T11:19:07.305Z,13.52
2023-02-12T11:21:35.657Z,14.02
2023-02-12T11:24:22.295Z,11.85
2023-02-12T11:26:49.150Z,13.10
2023-02-12T11:29:21.925Z,12.05
2023-02-12T11:32:01.978Z,16.05
2023-02-12T11:34:29.911Z,17.40
2023-02-12T11:36:57.479Z,12.85
2023-02-12T11:39:28.852Z,12.38
2023-02-12T11:41:59.383Z,12.10
2023-02-12T11:44:34.528Z,12.15
2023-02-12T11:47:08.934Z,13.48
2023-02-12T11:49:43.998Z,11.07
2023-02-12T11:52:32.037Z,11.93
2023-02-12T11:55:02.324Z,10.88
2023-02-12T11:57:49.339Z,10.35
2023-02-12T12:00:31.112Z,8.68
2023-02-12T12:03:06.813Z,10.00
2023-02-12T12:05:45.095Z,9.00
2023-02-12T12:08:20.486Z,6.30
2023-02-12T12:11:00.053Z,8.50
2023-02-12T12:13:40.344Z,9.00
2023-02-12T12:16:31.996Z,9.35
2023-02-12T12:19:38.434Z,8.90
2023-02-12T12:22:41.845Z,9.48
2023-02-12T12:25:35.240Z,8.23
2023-02-12T12:28:20.367Z,7.97
2023-02-12T12:31:08.926Z,10.50
2023-02-12T12:33:47.037Z,7.88
2023-02-12T12:36:13.734Z,8.13
2023-02-12T12:39:24.663Z,6.43
2023-02-12T12:41:51.375Z,7.57
2023-02-12T12:44:36.945Z,8.68
2023-02-12T12:47:03.626Z,7.97
2023-02-12T12:49:46.910Z,8.07
2023-02-12T12:52:19.463Z,9.00
2023-02-12T12:55:04.408Z,11.02
2023-02-12T12:57:40.152Z,10.07
2023-02-12T13:00:32.603Z,10.18
2023-02-12T13:03:17.866Z,10.55
2023-02-12T13:06:09.268Z,10.98
2023-02-12T13:08:47.935Z,10.98
2023-02-12T13:11:43.674Z,9.23
2023-02-12T13:14:32.104Z,8.88
2023-02-12T13:17:11.488Z,10.02
2023-02-12T13:20:09.229Z,10.70
2023-02-12T13:22:47.850Z,11.30
2023-02-12T13:25:42.748Z,10.88
2023-02-12T13:28:32.067Z,9.48
2023-02-12T13:31:01.426Z,8.48
2023-02-12T13:33:39.698Z,10.40
2023-02-12T13:36:09.107Z,10.45
2023-02-12T13:38:39.834Z,14.10
2023-02-12T13:41:10.577Z,11.20
2023-02-12T13:43:49.238Z,9.35
2023-02-12T13:46:34.866Z,10.95
2023-02-12T13:49:26.373Z,9.98
2023-02-12T13:52:14.005Z,10.20
2023-02-12T13:55:11.448Z,9.68
2023-02-12T13:57:38.256Z,9.50
2023-02-12T14:00:25.747Z,10.15
2023-02-12T14:02:53.664Z,11.13
2023-02-12T14:05:27.396Z,8.75
2023-02-12T14:08:03.633Z,7.47
2023-02-12T14:10:30.548Z,7.90
2023-02-12T14:13:18.911Z,7.25
2023-02-12T14:15:52.175Z,8.30
2023-02-12T14:18:27.356Z,7.75
2023-02-12T14:21:10.195Z,5.10
2023-02-12T14:23:37.989Z,5.55
2023-02-12T14:26:19.441Z,5.00
2023-02-12T14:29:15.441Z,6.18
2023-02-12T14:31:42.995Z,5.85
2023-02-12T14:34:09.739Z,5.15
2023-02-12T14:36:40.843Z,4.43
2023-02-12T14:39:19.910Z,4.47
2023-02-12T14:41:53.210Z,5.30
2023-02-12T14:44:23.479Z,5.10
2023-02-12T14:46:59.426Z,4.75
2023-02-12T14:49:30.573Z,4.45
2023-02-12T14:52:05.037Z,5.35
2023-02-12T14:54:41.113Z,5.63
2023-02-12T14:57:33.512Z,6.38
2023-02-12T15:00:18.322Z,6.68
2023-02-12T15:02:52.802Z,5.47
2023-02-12T15:05:25.753Z,5.47
2023-02-12T15:07:58.552Z,6.15
2023-02-12T15:10:32.117Z,5.28
2023-02-12T15:13:14.214Z,5.80
2023-02-12T15:15:53.541Z,11.48
2023-02-12T15:18:48.277Z,9.95
2023-02-12T15:21:26.839Z,11.23
2023-02-12T15:24:11.684Z,10.00
2023-02-12T15:26:49.790Z,12.02
2023-02-12T15:29:53.446Z,9.85
2023-02-12T15:32:27.850Z,8.75
2023-02-12T15:34:55.480Z,10.82
2023-02-12T15:37:28.348Z,9.27
2023-02-12T15:39:59.332Z,9.17
2023-02-12T15:42:33.118Z,9.75
2023-02-12T15:45:22.162Z,9.85
2023-02-12T15:48:19.320Z,8.85
2023-02-12T15:50:58.226Z,11.15
2023-02-12T15:53:26.575Z,10.98
2023-02-12T15:55:53.968Z,8.20
2023-02-12T15:58:22.848Z,9.40
2023-02-12T16:00:50.204Z,8.93
2023-02-12T16:03:31.420Z,13.90
2023-02-12T16:06:11.818Z,9.93
2023-02-12T16:08:39.851Z,9.23
2023-02-12T16:11:17.370Z,12.55
2023-02-12T16:13:54.176Z,11.30
2023-02-12T16:16:25.198Z,12.35
2023-02-12T16:19:08.632Z,11.75
2023-02-12T16:21:38.338Z,10.65
2023-02-12T16:24:19.505Z,13.77
2023-02-12T16:26:47.508Z,11.13
2023-02-12T16:29:17.388Z,11.02
2023-02-12T16:32:02.221Z,11.57
2023-02-12T16:34:35.532Z,11.60
2023-02-12T16:37:03.043Z,11.40
2023-02-12T16:39:48.537Z,11.95
2023-02-12T16:42:19.292Z,12.57
2023-02-12T16:44:45.974Z,13.32
2023-02-12T16:47:24.477Z,10.90
2023-02-12T16:49:59.770Z,14.07
2023-02-12T16:52:40.053Z,13.82
2023-02-12T16:55:14.118Z,15.35
2023-02-12T16:57:41.136Z,13.80
2023-02-12T17:00:09.599Z,14.02
2023-02-12T17:02:37.450Z,11.82
2023-02-12T17:05:07.364Z,13.55
2023-02-12T17:07:34.537Z,14.07
2023-02-12T17:10:01.901Z,14.63
2023-02-12T17:12:29.243Z,12.90
2023-02-12T17:14:56.099Z,10.55
2023-02-12T17:17:22.754Z,13.65
2023-02-12T17:19:49.629Z,10.60
2023-02-12T17:22:26.394Z,12.68
2023-02-12T17:24:53.456Z,13.60
2023-02-12T17:27:20.681Z,14.38
2023-02-12T17:29:47.395Z,15.02
2023-02-12T17:32:14.579Z,12.48
2023-02-12T17:34:48.442Z,15.68
2023-02-12T17:37:15.873Z,11.70
2023-02-12T17:39:42.518Z,12.98
2023-02-12T17:42:09.219Z,13.90
2023-02-12T17:44:35.992Z,13.60
2023-02-12T17:47:02.654Z,15.50
2023-02-12T17:49:31.037Z,14.00
2023-02-12T17:51:57.884Z,14.05
2023-02-12T17:54:24.617Z,16.83
2023-02-12T17:56:51.256Z,16.25
2023-02-12T17:59:17.975Z,16.08
2023-02-12T18:01:45.712Z,17.33
2023-02-12T18:04:12.470Z,13.60
2023-02-12T18:06:39.309Z,18.48
2023-02-12T18:09:05.979Z,15.93
2023-02-12T18:11:33.185Z,22.42
2023-02-12T18:14:00.621Z,15.95
2023-02-12T18:16:32.102Z,17.00
2023-02-12T18:19:00.837Z,14.43
2023-02-12T18:21:27.798Z,14.65
2023-02-12T18:23:54.626Z,16.50
2023-02-12T18:26:21.990Z,20.63
2023-02-12T18:28:51.745Z,24.40
2023-02-12T18:31:19.686Z,22.02
2023-02-12T18:33:46.561Z,20.20
2023-02-12T18:36:17.104Z,15.35
2023-02-12T18:38:45.849Z,20.83
2023-02-12T18:41:15.576Z,20.23
2023-02-12T18:43:44.053Z,19.70
2023-02-12T18:46:13.845Z,19.35
2023-02-12T18:48:41.088Z,16.80
2023-02-12T18:51:10.292Z,21.80
2023-02-12T18:53:37.060Z,23.02
2023-02-12T18:56:06.002Z,24.30
2023-02-12T18:58:33.258Z,23.30
2023-02-12T19:01:03.409Z,31.05
2023-02-12T19:03:30.107Z,27.85
2023-02-12T19:06:04.194Z,25.00
2023-02-12T19:08:31.127Z,22.05
2023-02-12T19:10:58.421Z,25.83
2023-02-12T19:13:25.801Z,23.00
2023-02-12T19:15:52.912Z,20.15
2023-02-12T19:18:19.685Z,16.90
2023-02-12T19:20:46.408Z,19.75
2023-02-12T19:23:13.219Z,18.67
2023-02-12T19:25:42.975Z,19.02
2023-02-12T19:28:10.892Z,17.88
2023-02-12T19:30:39.542Z,18.92
2023-02-12T19:33:06.437Z,19.25
2023-02-12T19:35:33.686Z,19.65
2023-02-12T19:38:01.835Z,19.48
2023-02-12T19:40:28.615Z,20.02
2023-02-12T19:42:55.277Z,17.45
2023-02-12T19:45:21.977Z,20.35
2023-02-12T19:47:50.778Z,18.95
2023-02-12T19:50:17.492Z,18.95
2023-02-12T19:52:44.197Z,20.33
2023-02-12T19:55:10.865Z,21.10
2023-02-12T19:57:38.640Z,21.17
2023-02-12T20:00:06.250Z,23.40
2023-02-12T20:02:33.457Z,20.42
2023-02-12T20:05:00.122Z,20.95
2023-02-12T20:07:26.884Z,22.45
2023-02-12T20:09:53.582Z,20.65
2023-02-12T20:12:20.509Z,22.48
2023-02-12T20:14:47.167Z,20.55
2023-02-12T20:17:15.078Z,24.50
2023-02-12T20:19:41.867Z,23.13
2023-02-12T20:22:08.552Z,20.92
2023-02-12T20:24:35.514Z,21.88
2023-02-12T20:27:03.325Z,22.27
2023-02-12T20:29:30.252Z,20.30
2023-02-12T20:31:57.325Z,23.05
2023-02-12T20:34:24.119Z,22.73
2023-02-12T20:36:50.842Z,21.48
2023-02-12T20:39:19.463Z,21.25
2023-02-12T20:41:46.476Z,19.33
2023-02-12T20:44:17.454Z,22.27
2023-02-12T20:46:45.274Z,19.33
2023-02-12T20:49:16.657Z,21.52
2023-02-12T20:51:44.332Z,20.90
2023-02-12T20:54:11.957Z,22.80
2023-02-12T20:56:39.169Z,21.15
2023-02-12T20:59:07.559Z,19.95
2023-02-12T21:01:39.996Z,21.45
2023-02-12T21:04:13.557Z,20.77
2023-02-12T21:06:41.776Z,21.73
2023-02-12T21:09:10.161Z,19.67
2023-02-12T21:11:37.789Z,21.55
2023-02-12T21:14:23.669Z,19.88
2023-02-12T21:16:52.445Z,21.90
2023-02-12T21:19:19.340Z,19.45
2023-02-12T21:21:46.419Z,19.42
2023-02-12T21:24:19.721Z,20.25
2023-02-12T21:26:46.465Z,18.10
2023-02-12T21:29:13.459Z,20.38
2023-02-12T21:31:42.594Z,19.02
2023-02-12T21:34:13.373Z,20.40
2023-02-12T21:36:42.083Z,23.27
2023-02-12T21:39:12.472Z,20.58
2023-02-12T21:41:40.893Z,21.38
2023-02-12T21:44:17.676Z,22.20
2023-02-12T21:46:45.395Z,24.40
2023-02-12T21:49:13.564Z,24.77
2023-02-12T21:51:42.514Z,25.77
2023-02-12T21:54:12.589Z,32.53
2023-02-12T21:56:41.344Z,25.63
2023-02-12T21:59:08.909Z,21.45
2023-02-12T22:01:37.843Z,22.60
2023-02-12T22:04:06.802Z,18.35
2023-02-12T22:06:40.788Z,23.98
2023-02-12T22:09:09.434Z,24.40
2023-02-12T22:11:37.439Z,27.13
2023-02-12T22:14:05.106Z,20.13
2023-02-12T22:16:31.902Z,22.52
2023-02-12T22:19:01.890Z,22.48
2023-02-12T22:21:30.614Z,28.88
2023-02-12T22:23:59.563Z,22.60
2023-02-12T22:26:28.217Z,24.75
2023-02-12T22:29:09.685Z,24.05
2023-02-12T22:31:38.369Z,27.23
2023-02-12T22:34:08.338Z,27.70
2023-02-12T22:36:36.716Z,29.00
2023-02-12T22:39:04.665Z,23.83
2023-02-12T22:41:31.584Z,22.10
2023-02-12T22:44:00.274Z,20.42
2023-02-12T22:46:27.103Z,21.67
2023-02-12T22:48:54.109Z,22.08
2023-02-12T22:51:22.666Z,21.77
2023-02-12T22:53:49.784Z,24.27
2023-02-12T22:56:16.943Z,23.38
2023-02-12T22:58:44.075Z,23.80
2023-02-12T23:01:17.585Z,23.95
2023-02-12T23:03:45.704Z,24.25
2023-02-12T23:06:15.324Z,21.35
2023-02-12T23:08:42.841Z,22.95
2023-02-12T23:11:09.930Z,22.90
2023-02-12T23:13:36.830Z,20.67
2023-02-12T23:16:04.050Z,25.15
2023-02-12T23:18:30.845Z,21.33
2023-02-12T23:20:57.994Z,22.10
2023-02-12T23:23:25.101Z,23.63
2023-02-12T23:25:53.985Z,20.88
2023-02-12T23:28:21.427Z,25.25
2023-02-12T23:30:49.534Z,22.10
2023-02-12T23:33:16.354Z,23.90
2023-02-12T23:35:44.376Z,21.33
2023-02-12T23:38:11.300Z,23.85
2023-02-12T23:40:37.980Z,27.00
2023-02-12T23:43:04.860Z,22.42
2023-02-12T23:45:31.496Z,23.67
2023-02-12T23:47:58.281Z,25.38
2023-02-12T23:50:25.601Z,24.35
2023-02-12T23:52:52.304Z,22.45
2023-02-12T23:55:20.313Z,21.33
2023-02-12T23:57:47.740Z,20.85
